sensor_id;sensor_type;location;lat;lon;timestamp;P1;durP1;ratioP1;P2;durP2;ratioP2
19863;SDS011;10094;48.820;9.226;2022-11-24T00:04:23;16.85;;;4.03;;
19863;SDS011;10094;48.820;9.226;2022-11-24T00:11:08;12.43;;;4.32;;
19863;SDS011;10094;48.820;9.226;2022-11-24T00:18:00;12.15;;;3.75;;
19863;SDS011;10094;48.820;9.226;2022-11-24T00:24:43;11.75;;;3.75;;
19863;SDS011;10094;48.820;9.226;2022-11-24T00:31:38;12.98;;;4.75;;
19863;SDS011;10094;48.820;9.226;2022-11-24T00:38:23;10.00;;;3.47;;
19863;SDS011;10094;48.820;9.226;2022-11-24T00:45:07;9.52;;;3.22;;
19863;SDS011;10094;48.820;9.226;2022-11-24T00:51:58;9.45;;;3.42;;
19863;SDS011;10094;48.820;9.226;2022-11-24T00:58:41;11.45;;;4.15;;
19863;SDS011;10094;48.820;9.226;2022-11-24T01:05:24;13.73;;;3.72;;
19863;SDS011;10094;48.820;9.226;2022-11-24T01:12:08;10.35;;;3.67;;
19863;SDS011;10094;48.820;9.226;2022-11-24T01:18:51;9.05;;;3.63;;
19863;SDS011;10094;48.820;9.226;2022-11-24T01:25:37;12.40;;;3.85;;
19863;SDS011;10094;48.820;9.226;2022-11-24T01:32:21;9.73;;;3.30;;
19863;SDS011;10094;48.820;9.226;2022-11-24T01:39:06;8.63;;;3.20;;
19863;SDS011;10094;48.820;9.226;2022-11-24T01:45:57;13.30;;;3.20;;
19863;SDS011;10094;48.820;9.226;2022-11-24T01:53:01;8.55;;;3.00;;
19863;SDS011;10094;48.820;9.226;2022-11-24T01:59:46;8.38;;;2.97;;
19863;SDS011;10094;48.820;9.226;2022-11-24T02:06:38;10.73;;;3.03;;
19863;SDS011;10094;48.820;9.226;2022-11-24T02:13:33;12.85;;;3.20;;
19863;SDS011;10094;48.820;9.226;2022-11-24T02:20:18;10.90;;;3.25;;
19863;SDS011;10094;48.820;9.226;2022-11-24T02:27:01;6.80;;;3.13;;
19863;SDS011;10094;48.820;9.226;2022-11-24T02:33:45;6.30;;;2.58;;
19863;SDS011;10094;48.820;9.226;2022-11-24T02:40:30;11.15;;;2.90;;
19863;SDS011;10094;48.820;9.226;2022-11-24T02:47:13;6.43;;;2.45;;
19863;SDS011;10094;48.820;9.226;2022-11-24T02:53:55;9.18;;;2.40;;
19863;SDS011;10094;48.820;9.226;2022-11-24T03:00:37;9.02;;;3.28;;
19863;SDS011;10094;48.820;9.226;2022-11-24T03:07:20;8.55;;;2.58;;
19863;SDS011;10094;48.820;9.226;2022-11-24T03:14:04;8.13;;;2.88;;
19863;SDS011;10094;48.820;9.226;2022-11-24T03:20:46;8.85;;;3.08;;
19863;SDS011;10094;48.820;9.226;2022-11-24T03:27:29;5.85;;;2.63;;
19863;SDS011;10094;48.820;9.226;2022-11-24T03:34:11;6.43;;;2.58;;
19863;SDS011;10094;48.820;9.226;2022-11-24T03:40:54;8.30;;;2.50;;
19863;SDS011;10094;48.820;9.226;2022-11-24T03:47:36;10.48;;;2.72;;
19863;SDS011;10094;48.820;9.226;2022-11-24T03:54:18;5.72;;;2.38;;
19863;SDS011;10094;48.820;9.226;2022-11-24T04:01:01;5.15;;;2.42;;
19863;SDS011;10094;48.820;9.226;2022-11-24T04:07:44;9.70;;;2.60;;
19863;SDS011;10094;48.820;9.226;2022-11-24T04:14:26;8.80;;;3.42;;
19863;SDS011;10094;48.820;9.226;2022-11-24T04:21:09;12.88;;;3.70;;
19863;SDS011;10094;48.820;9.226;2022-11-24T04:27:51;4.90;;;2.80;;
19863;SDS011;10094;48.820;9.226;2022-11-24T04:34:36;7.45;;;2.95;;
19863;SDS011;10094;48.820;9.226;2022-11-24T04:41:19;6.75;;;2.80;;
19863;SDS011;10094;48.820;9.226;2022-11-24T04:48:01;11.40;;;3.20;;
19863;SDS011;10094;48.820;9.226;2022-11-24T04:54:44;6.88;;;2.75;;
19863;SDS011;10094;48.820;9.226;2022-11-24T05:01:27;8.73;;;2.90;;
19863;SDS011;10094;48.820;9.226;2022-11-24T05:08:10;7.85;;;3.00;;
19863;SDS011;10094;48.820;9.226;2022-11-24T05:14:52;10.98;;;2.58;;
19863;SDS011;10094;48.820;9.226;2022-11-24T05:21:34;7.03;;;2.90;;
19863;SDS011;10094;48.820;9.226;2022-11-24T05:28:17;7.93;;;3.28;;
19863;SDS011;10094;48.820;9.226;2022-11-24T05:35:00;10.70;;;3.22;;
19863;SDS011;10094;48.820;9.226;2022-11-24T05:41:45;10.80;;;2.72;;
19863;SDS011;10094;48.820;9.226;2022-11-24T05:48:27;7.07;;;2.97;;
19863;SDS011;10094;48.820;9.226;2022-11-24T05:55:10;7.00;;;2.50;;
19863;SDS011;10094;48.820;9.226;2022-11-24T06:01:53;7.90;;;2.90;;
19863;SDS011;10094;48.820;9.226;2022-11-24T06:08:35;7.55;;;2.97;;
19863;SDS011;10094;48.820;9.226;2022-11-24T06:15:18;9.32;;;3.00;;
19863;SDS011;10094;48.820;9.226;2022-11-24T06:22:00;12.85;;;4.22;;
19863;SDS011;10094;48.820;9.226;2022-11-24T06:28:42;10.48;;;3.60;;
19863;SDS011;10094;48.820;9.226;2022-11-24T06:35:25;9.35;;;3.70;;
19863;SDS011;10094;48.820;9.226;2022-11-24T06:42:07;14.38;;;3.63;;
19863;SDS011;10094;48.820;9.226;2022-11-24T06:48:50;10.93;;;3.40;;
19863;SDS011;10094;48.820;9.226;2022-11-24T06:55:33;7.20;;;2.80;;
19863;SDS011;10094;48.820;9.226;2022-11-24T07:02:16;7.03;;;3.38;;
19863;SDS011;10094;48.820;9.226;2022-11-24T07:08:58;6.20;;;2.92;;
19863;SDS011;10094;48.820;9.226;2022-11-24T07:15:40;8.35;;;2.95;;
19863;SDS011;10094;48.820;9.226;2022-11-24T07:22:23;10.43;;;3.20;;
19863;SDS011;10094;48.820;9.226;2022-11-24T07:29:05;11.60;;;3.50;;
19863;SDS011;10094;48.820;9.226;2022-11-24T07:35:47;12.68;;;3.17;;
19863;SDS011;10094;48.820;9.226;2022-11-24T07:42:30;11.25;;;2.92;;
19863;SDS011;10094;48.820;9.226;2022-11-24T07:49:12;8.52;;;2.90;;
19863;SDS011;10094;48.820;9.226;2022-11-24T07:55:59;13.63;;;3.25;;
19863;SDS011;10094;48.820;9.226;2022-11-24T08:02:42;15.93;;;4.25;;
19863;SDS011;10094;48.820;9.226;2022-11-24T08:09:28;9.68;;;3.10;;
19863;SDS011;10094;48.820;9.226;2022-11-24T08:16:11;10.52;;;3.15;;
19863;SDS011;10094;48.820;9.226;2022-11-24T08:22:59;5.13;;;2.47;;
19863;SDS011;10094;48.820;9.226;2022-11-24T08:29:41;7.35;;;2.50;;
19863;SDS011;10094;48.820;9.226;2022-11-24T08:36:24;11.57;;;2.10;;
19863;SDS011;10094;48.820;9.226;2022-11-24T08:43:06;7.22;;;2.08;;
19863;SDS011;10094;48.820;9.226;2022-11-24T08:49:49;7.07;;;2.00;;
19863;SDS011;10094;48.820;9.226;2022-11-24T08:56:33;5.22;;;1.85;;
19863;SDS011;10094;48.820;9.226;2022-11-24T09:03:15;4.45;;;1.90;;
19863;SDS011;10094;48.820;9.226;2022-11-24T09:09:58;3.80;;;1.70;;
19863;SDS011;10094;48.820;9.226;2022-11-24T09:16:40;3.92;;;1.20;;
19863;SDS011;10094;48.820;9.226;2022-11-24T09:23:23;4.45;;;1.48;;
19863;SDS011;10094;48.820;9.226;2022-11-24T09:30:05;3.78;;;1.40;;
19863;SDS011;10094;48.820;9.226;2022-11-24T09:36:49;4.25;;;1.40;;
19863;SDS011;10094;48.820;9.226;2022-11-24T09:50:21;2.65;;;1.20;;
19863;SDS011;10094;48.820;9.226;2022-11-24T09:57:08;1.90;;;1.00;;
19863;SDS011;10094;48.820;9.226;2022-11-24T10:03:55;3.42;;;1.02;;
19863;SDS011;10094;48.820;9.226;2022-11-24T10:10:49;1.17;;;1.00;;
19863;SDS011;10094;48.820;9.226;2022-11-24T10:45:12;1.25;;;0.93;;
19863;SDS011;10094;48.820;9.226;2022-11-24T10:51:59;3.75;;;1.63;;
19863;SDS011;10094;48.820;9.226;2022-11-24T10:58:46;2.92;;;1.10;;
19863;SDS011;10094;48.820;9.226;2022-11-24T11:12:26;1.52;;;1.10;;
19863;SDS011;10094;48.820;9.226;2022-11-24T11:26:32;3.05;;;1.17;;
19863;SDS011;10094;48.820;9.226;2022-11-24T11:33:19;3.35;;;1.27;;
19863;SDS011;10094;48.820;9.226;2022-11-24T11:40:25;4.47;;;1.50;;
19863;SDS011;10094;48.820;9.226;2022-11-24T11:47:12;4.90;;;1.60;;
19863;SDS011;10094;48.820;9.226;2022-11-24T11:54:37;2.50;;;1.15;;
19863;SDS011;10094;48.820;9.226;2022-11-24T12:09:07;4.38;;;1.70;;
19863;SDS011;10094;48.820;9.226;2022-11-24T12:16:13;5.63;;;2.38;;
19863;SDS011;10094;48.820;9.226;2022-11-24T12:30:02;6.15;;;2.42;;
19863;SDS011;10094;48.820;9.226;2022-11-24T12:37:02;6.10;;;1.98;;
19863;SDS011;10094;48.820;9.226;2022-11-24T12:43:50;3.55;;;1.80;;
19863;SDS011;10094;48.820;9.226;2022-11-24T12:50:35;5.05;;;2.08;;
19863;SDS011;10094;48.820;9.226;2022-11-24T12:57:26;5.38;;;2.13;;
19863;SDS011;10094;48.820;9.226;2022-11-24T13:11:40;5.20;;;2.05;;
19863;SDS011;10094;48.820;9.226;2022-11-24T13:25:31;7.25;;;2.20;;
19863;SDS011;10094;48.820;9.226;2022-11-24T13:39:00;8.30;;;2.17;;
19863;SDS011;10094;48.820;9.226;2022-11-24T13:52:38;7.25;;;2.47;;
19863;SDS011;10094;48.820;9.226;2022-11-24T13:59:30;8.32;;;2.10;;
19863;SDS011;10094;48.820;9.226;2022-11-24T14:06:27;5.30;;;2.47;;
19863;SDS011;10094;48.820;9.226;2022-11-24T14:13:23;6.88;;;2.10;;
19863;SDS011;10094;48.820;9.226;2022-11-24T14:20:15;8.35;;;2.22;;
19863;SDS011;10094;48.820;9.226;2022-11-24T14:27:03;10.13;;;2.30;;
19863;SDS011;10094;48.820;9.226;2022-11-24T14:33:46;9.05;;;2.08;;
19863;SDS011;10094;48.820;9.226;2022-11-24T14:40:44;6.38;;;2.20;;
19863;SDS011;10094;48.820;9.226;2022-11-24T14:47:36;7.72;;;2.20;;
19863;SDS011;10094;48.820;9.226;2022-11-24T14:54:25;8.32;;;2.35;;
19863;SDS011;10094;48.820;9.226;2022-11-24T15:01:10;8.65;;;2.60;;
19863;SDS011;10094;48.820;9.226;2022-11-24T15:08:03;6.20;;;2.60;;
19863;SDS011;10094;48.820;9.226;2022-11-24T15:14:50;7.88;;;2.30;;
19863;SDS011;10094;48.820;9.226;2022-11-24T15:21:35;3.60;;;2.03;;
19863;SDS011;10094;48.820;9.226;2022-11-24T15:28:18;5.07;;;2.03;;
19863;SDS011;10094;48.820;9.226;2022-11-24T15:35:08;11.73;;;2.95;;
19863;SDS011;10094;48.820;9.226;2022-11-24T15:41:52;8.68;;;2.60;;
19863;SDS011;10094;48.820;9.226;2022-11-24T15:48:35;7.55;;;2.38;;
19863;SDS011;10094;48.820;9.226;2022-11-24T15:55:19;7.30;;;2.55;;
19863;SDS011;10094;48.820;9.226;2022-11-24T16:02:02;8.23;;;3.30;;
19863;SDS011;10094;48.820;9.226;2022-11-24T16:08:45;7.03;;;2.67;;
19863;SDS011;10094;48.820;9.226;2022-11-24T16:15:28;6.72;;;2.45;;
19863;SDS011;10094;48.820;9.226;2022-11-24T16:22:11;7.82;;;2.80;;
19863;SDS011;10094;48.820;9.226;2022-11-24T16:28:53;11.60;;;3.45;;
19863;SDS011;10094;48.820;9.226;2022-11-24T16:35:36;9.90;;;3.53;;
19863;SDS011;10094;48.820;9.226;2022-11-24T16:42:18;11.77;;;3.72;;
19863;SDS011;10094;48.820;9.226;2022-11-24T16:49:00;18.27;;;5.30;;
19863;SDS011;10094;48.820;9.226;2022-11-24T16:55:50;13.95;;;4.68;;
19863;SDS011;10094;48.820;9.226;2022-11-24T17:02:37;20.90;;;5.85;;
19863;SDS011;10094;48.820;9.226;2022-11-24T17:09:20;13.07;;;4.55;;
19863;SDS011;10094;48.820;9.226;2022-11-24T17:16:04;10.95;;;3.95;;
19863;SDS011;10094;48.820;9.226;2022-11-24T17:22:47;13.82;;;5.07;;
19863;SDS011;10094;48.820;9.226;2022-11-24T17:29:30;11.77;;;4.10;;
19863;SDS011;10094;48.820;9.226;2022-11-24T17:36:12;12.23;;;4.10;;
19863;SDS011;10094;48.820;9.226;2022-11-24T17:42:58;12.98;;;4.70;;
19863;SDS011;10094;48.820;9.226;2022-11-24T17:49:41;17.05;;;4.78;;
19863;SDS011;10094;48.820;9.226;2022-11-24T17:56:25;10.77;;;4.00;;
19863;SDS011;10094;48.820;9.226;2022-11-24T18:03:08;19.38;;;4.82;;
19863;SDS011;10094;48.820;9.226;2022-11-24T18:09:51;18.40;;;5.28;;
19863;SDS011;10094;48.820;9.226;2022-11-24T18:16:34;8.30;;;4.55;;
19863;SDS011;10094;48.820;9.226;2022-11-24T18:23:21;14.27;;;4.38;;
19863;SDS011;10094;48.820;9.226;2022-11-24T18:30:04;11.85;;;5.05;;
19863;SDS011;10094;48.820;9.226;2022-11-24T18:36:47;12.95;;;5.32;;
19863;SDS011;10094;48.820;9.226;2022-11-24T18:43:34;10.85;;;5.05;;
19863;SDS011;10094;48.820;9.226;2022-11-24T18:50:18;14.05;;;6.18;;
19863;SDS011;10094;48.820;9.226;2022-11-24T18:57:02;21.10;;;7.50;;
19863;SDS011;10094;48.820;9.226;2022-11-24T19:03:47;19.38;;;6.10;;
19863;SDS011;10094;48.820;9.226;2022-11-24T19:10:38;12.80;;;6.28;;
19863;SDS011;10094;48.820;9.226;2022-11-24T19:17:21;20.95;;;7.15;;
19863;SDS011;10094;48.820;9.226;2022-11-24T19:24:04;16.10;;;7.18;;
19863;SDS011;10094;48.820;9.226;2022-11-24T19:31:00;15.65;;;6.68;;
19863;SDS011;10094;48.820;9.226;2022-11-24T19:37:48;16.27;;;6.68;;
19863;SDS011;10094;48.820;9.226;2022-11-24T19:44:30;14.77;;;8.07;;
19863;SDS011;10094;48.820;9.226;2022-11-24T19:51:17;18.42;;;8.30;;
19863;SDS011;10094;48.820;9.226;2022-11-24T19:58:01;15.95;;;7.40;;
19863;SDS011;10094;48.820;9.226;2022-11-24T20:04:47;20.15;;;8.45;;
19863;SDS011;10094;48.820;9.226;2022-11-24T20:11:32;17.92;;;9.40;;
19863;SDS011;10094;48.820;9.226;2022-11-24T20:18:14;18.88;;;8.52;;
19863;SDS011;10094;48.820;9.226;2022-11-24T20:24:57;18.02;;;8.80;;
19863;SDS011;10094;48.820;9.226;2022-11-24T20:31:48;18.75;;;9.65;;
19863;SDS011;10094;48.820;9.226;2022-11-24T20:38:32;18.23;;;8.93;;
19863;SDS011;10094;48.820;9.226;2022-11-24T20:45:15;22.70;;;9.95;;
19863;SDS011;10094;48.820;9.226;2022-11-24T20:51:57;18.90;;;9.38;;
19863;SDS011;10094;48.820;9.226;2022-11-24T20:58:40;16.52;;;8.23;;
19863;SDS011;10094;48.820;9.226;2022-11-24T21:05:23;15.00;;;9.40;;
19863;SDS011;10094;48.820;9.226;2022-11-24T21:12:06;17.23;;;8.65;;
19863;SDS011;10094;48.820;9.226;2022-11-24T21:18:49;13.20;;;7.80;;
19863;SDS011;10094;48.820;9.226;2022-11-24T21:25:34;18.98;;;9.18;;
19863;SDS011;10094;48.820;9.226;2022-11-24T21:32:17;19.33;;;9.20;;
19863;SDS011;10094;48.820;9.226;2022-11-24T21:39:00;17.15;;;8.43;;
19863;SDS011;10094;48.820;9.226;2022-11-24T21:45:44;22.10;;;8.98;;
19863;SDS011;10094;48.820;9.226;2022-11-24T21:52:27;19.50;;;10.18;;
19863;SDS011;10094;48.820;9.226;2022-11-24T21:59:10;15.32;;;9.38;;
19863;SDS011;10094;48.820;9.226;2022-11-24T22:05:54;19.23;;;10.45;;
19863;SDS011;10094;48.820;9.226;2022-11-24T22:12:38;18.90;;;9.77;;
19863;SDS011;10094;48.820;9.226;2022-11-24T22:19:24;15.80;;;9.45;;
19863;SDS011;10094;48.820;9.226;2022-11-24T22:26:10;19.85;;;9.48;;
19863;SDS011;10094;48.820;9.226;2022-11-24T22:32:55;21.40;;;10.45;;
19863;SDS011;10094;48.820;9.226;2022-11-24T22:39:38;19.60;;;11.02;;
19863;SDS011;10094;48.820;9.226;2022-11-24T22:46:22;19.73;;;11.18;;
19863;SDS011;10094;48.820;9.226;2022-11-24T22:53:07;21.75;;;11.65;;
19863;SDS011;10094;48.820;9.226;2022-11-24T22:59:49;18.35;;;10.95;;
19863;SDS011;10094;48.820;9.226;2022-11-24T23:06:32;19.30;;;10.60;;
19863;SDS011;10094;48.820;9.226;2022-11-24T23:13:14;17.90;;;10.65;;
19863;SDS011;10094;48.820;9.226;2022-11-24T23:19:57;22.08;;;12.20;;
19863;SDS011;10094;48.820;9.226;2022-11-24T23:26:39;18.08;;;11.02;;
19863;SDS011;10094;48.820;9.226;2022-11-24T23:33:22;25.88;;;12.48;;
19863;SDS011;10094;48.820;9.226;2022-11-24T23:40:04;21.27;;;11.35;;
19863;SDS011;10094;48.820;9.226;2022-11-24T23:46:47;21.50;;;10.60;;
19863;SDS011;10094;48.820;9.226;2022-11-24T23:53:30;25.45;;;11.38;;
